LFCR/RDZ METAR and TAF weather

Enter ICAO airport designator
Station Type Date Time Source
LFCR METAR 2020/08/14 17:30 UTC NOAA

LFCR 141730Z AUTO 30006KT 250V340 CAVOK 25/11 Q1016 NOSIG


Station Type Date Time Source
LFCR Decoded METAR 2020/08/14 17:30 UTC NOAA

Rodez, France (LFCR) 44-24N 002-29E 580M
Aug 14, 2020 - 01:30 PM EDT / 2020.08.14 1730 UTC
Wind: from the WNW (300 degrees) at 7 MPH (6 KT) (direction variable):0
Visibility: greater than 7 mile(s):0
Temperature: 77 F (25 C)
Dew Point: 51 F (11 C)
Relative Humidity: 41%
Pressure (altimeter): 30.00 in. Hg (1016 hPa)
ob: LFCR 141730Z AUTO 30006KT 250V340 CAVOK 25/11 Q1016 NOSIG
cycle: 17

Station Type Date Time Source
LFCR TAF 2020/08/14 18:21 UTC NOAA

TAF LFCR 141700Z 1418/1518 31008KT CAVOK
BECMG 1422/1424 VRB03KT
TEMPO 1516/1518 FEW045CB

Example: see airport list